createdAt,value
2022-11-20T00:01:43.135Z,84.56
2022-11-20T00:06:47.754Z,83.65
2022-11-20T00:11:49.715Z,83.83
2022-11-20T00:16:51.745Z,84.55
2022-11-20T00:21:56.307Z,84.42
2022-11-20T00:26:58.079Z,84.12
2022-11-20T00:32:00.024Z,82.53
2022-11-20T00:37:03.333Z,83.92
2022-11-20T00:42:05.381Z,83.65
2022-11-20T00:47:07.350Z,83.77
2022-11-20T00:52:10.745Z,84.21
2022-11-20T00:57:12.726Z,85.20
2022-11-20T01:02:16.435Z,84.69
2022-11-20T01:07:19.804Z,85.06
2022-11-20T01:12:21.961Z,85.61
2022-11-20T01:17:24.029Z,85.00
2022-11-20T01:22:27.303Z,85.02
2022-11-20T01:27:29.236Z,85.49
2022-11-20T01:32:31.175Z,85.03
2022-11-20T01:37:34.457Z,84.81
2022-11-20T01:42:55.120Z,85.24
2022-11-20T01:47:57.057Z,85.31
2022-11-20T01:53:04.925Z,85.14
2022-11-20T01:58:07.236Z,85.70
2022-11-20T02:03:12.152Z,85.79
2022-11-20T02:08:16.558Z,86.34
2022-11-20T02:13:37.072Z,86.08
2022-11-20T02:18:39.748Z,85.88
2022-11-20T02:23:55.116Z,86.30
2022-11-20T02:28:58.067Z,85.78
2022-11-20T02:34:00.096Z,85.89
2022-11-20T02:39:03.679Z,85.86
2022-11-20T02:44:06.473Z,84.82
2022-11-20T02:49:08.456Z,86.14
2022-11-20T02:54:11.749Z,85.72
2022-11-20T02:59:13.779Z,86.07
2022-11-20T03:04:15.869Z,85.98
2022-11-20T03:09:19.568Z,85.26
2022-11-20T03:14:21.799Z,86.13
2022-11-20T03:19:23.934Z,86.40
2022-11-20T03:24:27.675Z,86.33
2022-11-20T03:29:29.901Z,85.96
2022-11-20T03:34:31.827Z,86.18
2022-11-20T03:39:35.076Z,86.49
2022-11-20T03:44:36.996Z,86.25
2022-11-20T03:49:38.900Z,85.68
2022-11-20T03:54:42.209Z,85.98
2022-11-20T03:59:44.184Z,86.47
2022-11-20T04:04:46.107Z,86.26
2022-11-20T04:09:49.468Z,86.67
2022-11-20T04:14:51.374Z,86.57
2022-11-20T04:19:53.348Z,86.56
2022-11-20T04:24:56.641Z,85.62
2022-11-20T04:29:58.569Z,86.13
2022-11-20T04:35:00.517Z,86.48
2022-11-20T04:40:04.386Z,86.33
2022-11-20T04:45:07.175Z,86.53
2022-11-20T04:50:10.079Z,86.87
2022-11-20T04:55:13.443Z,86.59
2022-11-20T05:00:16.584Z,86.91
2022-11-20T05:05:19.002Z,86.17
2022-11-20T05:10:22.298Z,86.70
2022-11-20T05:15:24.216Z,86.15
2022-11-20T05:20:26.360Z,85.25
2022-11-20T05:25:29.607Z,85.25
2022-11-20T05:30:31.598Z,85.66
2022-11-20T05:35:33.566Z,85.99
2022-11-20T05:40:37.506Z,86.51
2022-11-20T05:45:39.447Z,86.56
2022-11-20T05:50:41.396Z,85.39
2022-11-20T05:55:44.852Z,85.18
2022-11-20T06:00:46.774Z,85.42
2022-11-20T06:05:48.836Z,86.18
2022-11-20T06:10:52.816Z,86.32
2022-11-20T06:15:55.077Z,86.60
2022-11-20T06:21:01.960Z,86.79
2022-11-20T06:26:06.978Z,86.02
2022-11-20T06:31:12.180Z,86.97
2022-11-20T06:36:16.413Z,85.94
2022-11-20T06:41:21.573Z,85.41
2022-11-20T06:46:23.585Z,85.79
2022-11-20T06:51:25.798Z,85.59
2022-11-20T06:56:29.339Z,85.53
2022-11-20T07:01:31.283Z,85.67
2022-11-20T07:06:33.269Z,85.78
2022-11-20T07:11:36.512Z,85.41
2022-11-20T07:16:38.483Z,82.18
2022-11-20T07:21:40.488Z,77.28
2022-11-20T07:26:46.636Z,78.89
2022-11-20T07:31:48.567Z,79.80
2022-11-20T07:36:50.609Z,81.44
2022-11-20T07:41:53.933Z,81.59
2022-11-20T07:46:56.008Z,81.08
2022-11-20T07:52:03.165Z,80.72
2022-11-20T07:57:07.903Z,81.53
2022-11-20T08:02:11.018Z,79.58
2022-11-20T08:07:13.078Z,79.61
2022-11-20T08:12:39.180Z,80.18
2022-11-20T08:17:41.160Z,79.96
2022-11-20T08:22:43.162Z,80.38
2022-11-20T08:27:46.536Z,79.56
2022-11-20T08:32:48.504Z,79.72
2022-11-20T08:37:50.615Z,80.31
2022-11-20T08:42:53.911Z,79.91
2022-11-20T08:48:01.143Z,78.05
2022-11-20T08:53:04.431Z,76.06
2022-11-20T08:58:07.798Z,75.22
2022-11-20T09:03:10.105Z,74.88
2022-11-20T09:08:12.233Z,72.20
2022-11-20T09:13:15.573Z,69.61
2022-11-20T09:18:17.509Z,66.34
2022-11-20T09:23:19.698Z,66.10
2022-11-20T09:28:23.211Z,68.56
2022-11-20T09:33:25.119Z,67.24
2022-11-20T09:38:27.142Z,68.08
2022-11-20T09:43:43.474Z,70.29
2022-11-20T09:49:05.005Z,69.31
2022-11-20T09:54:16.297Z,70.27
2022-11-20T09:59:33.309Z,69.59
2022-11-20T10:04:43.719Z,70.24
2022-11-20T10:09:51.242Z,67.22
2022-11-20T10:15:15.481Z,66.27
2022-11-20T10:20:24.962Z,67.66
2022-11-20T10:25:34.816Z,66.96
2022-11-20T10:30:43.373Z,67.57
2022-11-20T10:35:50.068Z,65.96
2022-11-20T10:41:15.658Z,62.72
2022-11-20T10:46:23.142Z,64.58
2022-11-20T10:51:36.691Z,66.91
2022-11-20T10:56:48.309Z,64.64
2022-11-20T11:01:53.102Z,62.80
2022-11-20T11:07:00.121Z,65.19
2022-11-20T11:12:06.932Z,68.43
2022-11-20T11:17:22.573Z,68.80
2022-11-20T11:22:24.620Z,68.60
2022-11-20T11:27:26.632Z,68.87
2022-11-20T11:32:30.031Z,70.09
2022-11-20T11:37:36.631Z,69.76
2022-11-20T11:42:44.044Z,70.59
2022-11-20T11:47:49.249Z,70.34
2022-11-20T11:53:03.105Z,70.97
2022-11-20T11:58:17.934Z,71.12
2022-11-20T12:03:25.678Z,71.17
2022-11-20T12:08:33.421Z,71.53
2022-11-20T12:13:45.041Z,74.47
2022-11-20T12:18:49.885Z,71.39
2022-11-20T12:31:53.896Z,66.50
2022-11-20T12:37:00.608Z,67.79
2022-11-20T12:42:39.186Z,70.48
2022-11-20T12:48:04.021Z,71.48
2022-11-20T12:53:11.924Z,69.62
2022-11-20T12:58:21.853Z,70.99
2022-11-20T13:03:41.552Z,71.71
2022-11-20T13:08:49.178Z,72.55
2022-11-20T13:14:06.030Z,72.35
2022-11-20T13:19:13.120Z,71.94
2022-11-20T13:24:26.363Z,74.08
2022-11-20T13:29:29.571Z,75.80
2022-11-20T13:34:33.453Z,77.92
2022-11-20T13:39:37.786Z,77.05
2022-11-20T13:44:43.667Z,79.81
2022-11-20T13:49:49.134Z,77.76
2022-11-20T13:55:07.781Z,77.67
2022-11-20T14:00:13.271Z,77.50
2022-11-20T14:05:22.401Z,78.45
2022-11-20T14:10:31.336Z,77.38
2022-11-20T14:15:36.046Z,75.20
2022-11-20T14:20:43.394Z,74.77
2022-11-20T14:25:46.130Z,74.87
2022-11-20T14:30:49.386Z,73.60
2022-11-20T14:35:54.789Z,74.46
2022-11-20T14:41:07.222Z,74.53
2022-11-20T14:46:11.266Z,74.46
2022-11-20T14:51:23.915Z,73.57
2022-11-20T14:56:26.017Z,76.76
2022-11-20T15:01:29.385Z,75.42
2022-11-20T15:06:32.795Z,76.11
2022-11-20T15:11:36.640Z,75.91
2022-11-20T15:16:40.393Z,76.96
2022-11-20T15:21:43.709Z,76.14
2022-11-20T15:26:45.952Z,75.24
2022-11-20T15:31:47.955Z,74.30
2022-11-20T15:36:51.273Z,75.65
2022-11-20T15:41:53.226Z,75.12
2022-11-20T15:46:55.496Z,75.14
2022-11-20T15:51:58.779Z,75.79
2022-11-20T15:57:01.741Z,76.19
2022-11-20T16:02:03.746Z,75.31
2022-11-20T16:07:07.186Z,75.37
2022-11-20T16:12:30.534Z,75.29
2022-11-20T16:17:43.402Z,75.97
2022-11-20T16:22:46.731Z,75.13
2022-11-20T16:27:48.660Z,75.86
2022-11-20T16:32:50.765Z,75.32
2022-11-20T16:37:54.089Z,75.25
2022-11-20T16:42:57.927Z,74.90
2022-11-20T16:48:00.823Z,75.01
2022-11-20T16:53:04.083Z,74.93
2022-11-20T16:58:06.692Z,75.55
2022-11-20T17:03:09.147Z,74.37
2022-11-20T17:08:12.497Z,75.26
2022-11-20T17:13:14.800Z,76.80
2022-11-20T17:18:16.773Z,75.55
2022-11-20T17:23:20.025Z,77.59
2022-11-20T17:28:22.008Z,77.05
2022-11-20T17:33:24.049Z,79.99
2022-11-20T17:38:27.558Z,78.54
2022-11-20T17:43:35.343Z,78.07
2022-11-20T17:48:38.192Z,77.48
2022-11-20T17:53:43.615Z,77.34
2022-11-20T17:58:45.613Z,76.47
2022-11-20T18:03:47.704Z,76.89
2022-11-20T18:08:51.737Z,76.77
2022-11-20T18:14:13.400Z,75.69
2022-11-20T18:19:18.054Z,76.58
2022-11-20T18:24:22.181Z,77.36
2022-11-20T18:29:25.321Z,76.73
2022-11-20T18:34:27.983Z,76.94
2022-11-20T18:39:32.419Z,75.87
2022-11-20T18:44:53.569Z,75.39
2022-11-20T18:49:57.419Z,75.37
2022-11-20T18:55:02.490Z,75.73
2022-11-20T19:00:09.220Z,77.67
2022-11-20T19:05:12.945Z,77.48
2022-11-20T19:10:20.066Z,76.41
2022-11-20T19:15:22.345Z,76.95
2022-11-20T19:20:24.558Z,77.35
2022-11-20T19:25:27.869Z,76.53
2022-11-20T19:30:30.049Z,76.73
2022-11-20T19:35:32.031Z,77.04
2022-11-20T19:40:35.366Z,77.03
2022-11-20T19:45:37.345Z,77.06
2022-11-20T19:50:39.306Z,76.31
2022-11-20T20:00:47.689Z,76.69
2022-11-20T20:05:49.651Z,75.78
2022-11-20T20:10:56.696Z,76.00
2022-11-20T20:16:01.422Z,75.72
2022-11-20T20:21:04.432Z,76.16
2022-11-20T20:26:09.098Z,77.09
2022-11-20T20:31:12.987Z,77.27
2022-11-20T20:36:15.593Z,78.38
2022-11-20T20:41:21.622Z,77.28
2022-11-20T20:46:23.912Z,79.04
2022-11-20T20:51:26.170Z,79.39
2022-11-20T20:56:29.474Z,80.23
2022-11-20T21:01:31.486Z,81.04
2022-11-20T21:06:33.545Z,80.16
2022-11-20T21:11:36.825Z,78.83
2022-11-20T21:16:43.739Z,78.29
2022-11-20T21:22:02.902Z,78.13
2022-11-20T21:27:06.849Z,78.26
2022-11-20T21:32:08.621Z,78.08
2022-11-20T21:37:10.558Z,77.10
2022-11-20T21:42:14.788Z,76.48
2022-11-20T21:47:16.751Z,76.51
2022-11-20T21:52:18.788Z,77.01
2022-11-20T21:57:22.074Z,76.29
2022-11-20T22:02:24.034Z,78.08
2022-11-20T22:07:26.068Z,77.61
2022-11-20T22:12:29.393Z,79.44
2022-11-20T22:17:49.827Z,81.96
2022-11-20T22:22:51.764Z,82.98
2022-11-20T22:27:55.161Z,83.57
2022-11-20T22:32:57.088Z,84.13
2022-11-20T22:37:59.102Z,83.61
2022-11-20T22:43:02.375Z,83.25
2022-11-20T22:48:04.937Z,83.10
2022-11-20T22:53:06.867Z,82.67
2022-11-20T22:58:10.125Z,82.31
2022-11-20T23:03:12.101Z,81.81
2022-11-20T23:08:14.057Z,81.19
2022-11-20T23:13:17.311Z,81.20
2022-11-20T23:18:19.353Z,82.11
2022-11-20T23:23:21.416Z,82.27
2022-11-20T23:28:24.683Z,82.36
2022-11-20T23:33:26.798Z,82.66
2022-11-20T23:38:28.725Z,82.65
2022-11-20T23:43:32.539Z,82.47
2022-11-20T23:48:36.515Z,83.30
2022-11-20T23:53:38.383Z,83.36
2022-11-20T23:58:42.470Z,81.73
